sensor_id;sensor_type;location;lat;lon;timestamp;P1;durP1;ratioP1;P2;durP2;ratioP2
33714;SDS011;20043;50.998;4.754;2022-10-22T00:00:06;11.98;;;3.30;;
33714;SDS011;20043;50.998;4.754;2022-10-22T00:02:33;12.63;;;3.70;;
33714;SDS011;20043;50.998;4.754;2022-10-22T00:04:59;13.73;;;3.30;;
33714;SDS011;20043;50.998;4.754;2022-10-22T00:07:25;15.85;;;3.28;;
33714;SDS011;20043;50.998;4.754;2022-10-22T00:09:50;11.13;;;3.33;;
33714;SDS011;20043;50.998;4.754;2022-10-22T00:12:16;12.00;;;3.20;;
33714;SDS011;20043;50.998;4.754;2022-10-22T00:14:42;13.10;;;3.28;;
33714;SDS011;20043;50.998;4.754;2022-10-22T00:17:08;15.80;;;3.38;;
33714;SDS011;20043;50.998;4.754;2022-10-22T00:19:34;9.15;;;3.22;;
33714;SDS011;20043;50.998;4.754;2022-10-22T00:21:59;13.07;;;3.40;;
33714;SDS011;20043;50.998;4.754;2022-10-22T00:24:29;11.65;;;2.80;;
33714;SDS011;20043;50.998;4.754;2022-10-22T00:26:55;11.18;;;2.97;;
33714;SDS011;20043;50.998;4.754;2022-10-22T00:29:21;13.82;;;3.45;;
33714;SDS011;20043;50.998;4.754;2022-10-22T00:31:46;9.93;;;3.17;;
33714;SDS011;20043;50.998;4.754;2022-10-22T00:34:20;14.32;;;3.40;;
33714;SDS011;20043;50.998;4.754;2022-10-22T00:36:47;11.30;;;3.92;;
33714;SDS011;20043;50.998;4.754;2022-10-22T00:39:14;17.52;;;4.40;;
33714;SDS011;20043;50.998;4.754;2022-10-22T00:41:42;12.98;;;3.85;;
33714;SDS011;20043;50.998;4.754;2022-10-22T00:47:12;13.52;;;4.15;;
33714;SDS011;20043;50.998;4.754;2022-10-22T00:49:38;15.75;;;4.45;;
33714;SDS011;20043;50.998;4.754;2022-10-22T00:52:04;15.10;;;4.25;;
33714;SDS011;20043;50.998;4.754;2022-10-22T00:54:30;15.23;;;4.57;;
33714;SDS011;20043;50.998;4.754;2022-10-22T00:56:57;13.40;;;4.00;;
33714;SDS011;20043;50.998;4.754;2022-10-22T00:59:22;15.35;;;3.40;;
33714;SDS011;20043;50.998;4.754;2022-10-22T01:01:48;14.90;;;3.75;;
33714;SDS011;20043;50.998;4.754;2022-10-22T01:04:14;14.80;;;3.53;;
33714;SDS011;20043;50.998;4.754;2022-10-22T01:06:40;15.85;;;3.33;;
33714;SDS011;20043;50.998;4.754;2022-10-22T01:11:51;13.73;;;2.78;;
33714;SDS011;20043;50.998;4.754;2022-10-22T01:20:28;14.85;;;3.28;;
33714;SDS011;20043;50.998;4.754;2022-10-22T01:22:52;16.90;;;2.95;;
33714;SDS011;20043;50.998;4.754;2022-10-22T01:25:51;12.65;;;2.63;;
33714;SDS011;20043;50.998;4.754;2022-10-22T01:30:48;10.60;;;2.92;;
33714;SDS011;20043;50.998;4.754;2022-10-22T01:33:17;11.60;;;2.90;;
33714;SDS011;20043;50.998;4.754;2022-10-22T01:35:46;16.60;;;3.80;;
33714;SDS011;20043;50.998;4.754;2022-10-22T01:38:14;14.63;;;3.10;;
33714;SDS011;20043;50.998;4.754;2022-10-22T01:40:44;13.13;;;2.97;;
33714;SDS011;20043;50.998;4.754;2022-10-22T01:43:11;17.35;;;3.25;;
33714;SDS011;20043;50.998;4.754;2022-10-22T01:45:43;10.10;;;2.63;;
33714;SDS011;20043;50.998;4.754;2022-10-22T01:59:21;14.57;;;3.17;;
33714;SDS011;20043;50.998;4.754;2022-10-22T02:01:57;12.68;;;3.22;;
33714;SDS011;20043;50.998;4.754;2022-10-22T02:04:34;11.55;;;3.08;;
33714;SDS011;20043;50.998;4.754;2022-10-22T02:07:08;12.55;;;2.80;;
33714;SDS011;20043;50.998;4.754;2022-10-22T02:09:36;15.57;;;3.13;;
33714;SDS011;20043;50.998;4.754;2022-10-22T02:12:04;11.63;;;2.60;;
33714;SDS011;20043;50.998;4.754;2022-10-22T02:14:32;12.73;;;2.85;;
33714;SDS011;20043;50.998;4.754;2022-10-22T02:17:01;9.57;;;2.78;;
33714;SDS011;20043;50.998;4.754;2022-10-22T02:19:34;9.45;;;2.75;;
33714;SDS011;20043;50.998;4.754;2022-10-22T02:22:01;13.52;;;2.78;;
33714;SDS011;20043;50.998;4.754;2022-10-22T02:24:27;15.48;;;2.72;;
33714;SDS011;20043;50.998;4.754;2022-10-22T02:26:58;11.80;;;2.85;;
33714;SDS011;20043;50.998;4.754;2022-10-22T02:29:27;15.52;;;3.20;;
33714;SDS011;20043;50.998;4.754;2022-10-22T02:31:59;11.70;;;3.00;;
33714;SDS011;20043;50.998;4.754;2022-10-22T02:34:28;14.75;;;3.20;;
33714;SDS011;20043;50.998;4.754;2022-10-22T02:36:55;13.35;;;3.00;;
33714;SDS011;20043;50.998;4.754;2022-10-22T02:39:22;13.57;;;3.40;;
33714;SDS011;20043;50.998;4.754;2022-10-22T02:41:49;13.05;;;3.53;;
33714;SDS011;20043;50.998;4.754;2022-10-22T02:44:18;18.83;;;3.15;;
33714;SDS011;20043;50.998;4.754;2022-10-22T02:46:45;17.27;;;3.10;;
33714;SDS011;20043;50.998;4.754;2022-10-22T02:49:11;15.77;;;3.83;;
33714;SDS011;20043;50.998;4.754;2022-10-22T02:51:36;16.02;;;3.03;;
33714;SDS011;20043;50.998;4.754;2022-10-22T02:54:02;14.18;;;2.90;;
33714;SDS011;20043;50.998;4.754;2022-10-22T02:56:28;16.52;;;3.10;;
33714;SDS011;20043;50.998;4.754;2022-10-22T02:58:53;11.00;;;3.30;;
33714;SDS011;20043;50.998;4.754;2022-10-22T03:01:19;11.23;;;3.28;;
33714;SDS011;20043;50.998;4.754;2022-10-22T03:03:45;14.82;;;3.40;;
33714;SDS011;20043;50.998;4.754;2022-10-22T03:06:10;13.68;;;3.58;;
33714;SDS011;20043;50.998;4.754;2022-10-22T03:08:36;11.07;;;2.83;;
33714;SDS011;20043;50.998;4.754;2022-10-22T03:11:01;9.82;;;3.05;;
33714;SDS011;20043;50.998;4.754;2022-10-22T03:13:27;18.20;;;3.08;;
33714;SDS011;20043;50.998;4.754;2022-10-22T03:15:53;12.25;;;3.00;;
33714;SDS011;20043;50.998;4.754;2022-10-22T03:18:18;18.10;;;3.70;;
33714;SDS011;20043;50.998;4.754;2022-10-22T03:20:44;17.77;;;3.25;;
33714;SDS011;20043;50.998;4.754;2022-10-22T03:23:10;10.93;;;2.92;;
33714;SDS011;20043;50.998;4.754;2022-10-22T03:25:38;16.33;;;3.45;;
33714;SDS011;20043;50.998;4.754;2022-10-22T03:28:07;16.15;;;3.38;;
33714;SDS011;20043;50.998;4.754;2022-10-22T03:30:35;15.60;;;3.67;;
33714;SDS011;20043;50.998;4.754;2022-10-22T03:33:00;17.40;;;3.13;;
33714;SDS011;20043;50.998;4.754;2022-10-22T03:35:26;12.57;;;2.90;;
33714;SDS011;20043;50.998;4.754;2022-10-22T03:37:52;12.98;;;3.00;;
33714;SDS011;20043;50.998;4.754;2022-10-22T03:40:18;13.50;;;3.10;;
33714;SDS011;20043;50.998;4.754;2022-10-22T03:42:44;21.42;;;3.55;;
33714;SDS011;20043;50.998;4.754;2022-10-22T03:45:10;14.40;;;3.72;;
33714;SDS011;20043;50.998;4.754;2022-10-22T03:47:36;15.38;;;3.13;;
33714;SDS011;20043;50.998;4.754;2022-10-22T03:50:02;13.90;;;3.13;;
33714;SDS011;20043;50.998;4.754;2022-10-22T03:52:33;12.98;;;3.05;;
33714;SDS011;20043;50.998;4.754;2022-10-22T03:55:00;17.10;;;3.20;;
33714;SDS011;20043;50.998;4.754;2022-10-22T03:57:25;17.98;;;3.42;;
33714;SDS011;20043;50.998;4.754;2022-10-22T03:59:51;12.63;;;3.20;;
33714;SDS011;20043;50.998;4.754;2022-10-22T04:02:16;14.65;;;3.00;;
33714;SDS011;20043;50.998;4.754;2022-10-22T04:04:42;16.67;;;3.83;;
33714;SDS011;20043;50.998;4.754;2022-10-22T04:07:07;16.05;;;3.40;;
33714;SDS011;20043;50.998;4.754;2022-10-22T04:09:33;16.10;;;3.70;;
33714;SDS011;20043;50.998;4.754;2022-10-22T04:11:59;23.15;;;4.20;;
33714;SDS011;20043;50.998;4.754;2022-10-22T04:14:25;12.15;;;3.13;;
33714;SDS011;20043;50.998;4.754;2022-10-22T04:16:51;18.63;;;3.22;;
33714;SDS011;20043;50.998;4.754;2022-10-22T04:19:16;15.00;;;2.63;;
33714;SDS011;20043;50.998;4.754;2022-10-22T04:21:42;12.63;;;3.17;;
33714;SDS011;20043;50.998;4.754;2022-10-22T04:24:08;10.68;;;3.08;;
33714;SDS011;20043;50.998;4.754;2022-10-22T04:26:33;23.17;;;3.50;;
33714;SDS011;20043;50.998;4.754;2022-10-22T04:28:59;14.65;;;2.90;;
33714;SDS011;20043;50.998;4.754;2022-10-22T04:31:25;17.33;;;3.55;;
33714;SDS011;20043;50.998;4.754;2022-10-22T04:33:52;15.85;;;2.78;;
33714;SDS011;20043;50.998;4.754;2022-10-22T04:36:19;20.95;;;3.20;;
33714;SDS011;20043;50.998;4.754;2022-10-22T04:38:46;16.00;;;2.92;;
33714;SDS011;20043;50.998;4.754;2022-10-22T04:41:16;18.05;;;3.45;;
33714;SDS011;20043;50.998;4.754;2022-10-22T04:43:44;17.52;;;4.15;;
33714;SDS011;20043;50.998;4.754;2022-10-22T04:46:10;14.02;;;3.00;;
33714;SDS011;20043;50.998;4.754;2022-10-22T04:48:37;18.45;;;3.08;;
33714;SDS011;20043;50.998;4.754;2022-10-22T04:51:05;17.10;;;2.92;;
33714;SDS011;20043;50.998;4.754;2022-10-22T04:53:32;11.77;;;2.80;;
33714;SDS011;20043;50.998;4.754;2022-10-22T04:56:09;15.18;;;3.63;;
33714;SDS011;20043;50.998;4.754;2022-10-22T04:58:37;13.70;;;2.90;;
33714;SDS011;20043;50.998;4.754;2022-10-22T05:04:03;15.23;;;3.03;;
33714;SDS011;20043;50.998;4.754;2022-10-22T05:06:30;11.05;;;2.70;;
33714;SDS011;20043;50.998;4.754;2022-10-22T05:08:58;19.08;;;3.28;;
33714;SDS011;20043;50.998;4.754;2022-10-22T05:11:45;11.50;;;2.50;;
33714;SDS011;20043;50.998;4.754;2022-10-22T05:14:12;20.00;;;2.92;;
33714;SDS011;20043;50.998;4.754;2022-10-22T05:16:41;11.93;;;3.10;;
33714;SDS011;20043;50.998;4.754;2022-10-22T05:19:06;16.83;;;2.97;;
33714;SDS011;20043;50.998;4.754;2022-10-22T05:21:32;16.10;;;3.00;;
33714;SDS011;20043;50.998;4.754;2022-10-22T05:23:58;12.82;;;2.65;;
33714;SDS011;20043;50.998;4.754;2022-10-22T05:26:24;10.95;;;2.80;;
33714;SDS011;20043;50.998;4.754;2022-10-22T05:28:51;17.50;;;2.78;;
33714;SDS011;20043;50.998;4.754;2022-10-22T05:31:17;10.88;;;2.63;;
33714;SDS011;20043;50.998;4.754;2022-10-22T05:33:43;10.90;;;2.58;;
33714;SDS011;20043;50.998;4.754;2022-10-22T05:36:13;16.88;;;2.97;;
33714;SDS011;20043;50.998;4.754;2022-10-22T05:38:44;16.50;;;2.97;;
33714;SDS011;20043;50.998;4.754;2022-10-22T05:41:11;14.52;;;2.80;;
33714;SDS011;20043;50.998;4.754;2022-10-22T05:43:38;15.63;;;2.70;;
33714;SDS011;20043;50.998;4.754;2022-10-22T05:46:05;12.45;;;3.03;;
33714;SDS011;20043;50.998;4.754;2022-10-22T05:48:33;16.63;;;2.58;;
33714;SDS011;20043;50.998;4.754;2022-10-22T05:51:02;16.88;;;3.05;;
33714;SDS011;20043;50.998;4.754;2022-10-22T05:53:31;11.30;;;2.30;;
33714;SDS011;20043;50.998;4.754;2022-10-22T05:56:05;15.02;;;2.92;;
33714;SDS011;20043;50.998;4.754;2022-10-22T05:58:32;8.52;;;2.30;;
33714;SDS011;20043;50.998;4.754;2022-10-22T06:01:02;10.70;;;2.83;;
33714;SDS011;20043;50.998;4.754;2022-10-22T06:03:29;9.05;;;2.50;;
33714;SDS011;20043;50.998;4.754;2022-10-22T06:05:56;14.15;;;2.53;;
33714;SDS011;20043;50.998;4.754;2022-10-22T06:08:24;14.95;;;2.35;;
33714;SDS011;20043;50.998;4.754;2022-10-22T06:10:49;10.63;;;2.33;;
33714;SDS011;20043;50.998;4.754;2022-10-22T06:13:15;13.10;;;2.33;;
33714;SDS011;20043;50.998;4.754;2022-10-22T06:15:41;11.30;;;2.22;;
33714;SDS011;20043;50.998;4.754;2022-10-22T06:18:06;11.60;;;2.28;;
33714;SDS011;20043;50.998;4.754;2022-10-22T06:20:33;13.77;;;3.05;;
33714;SDS011;20043;50.998;4.754;2022-10-22T06:22:59;16.45;;;2.45;;
33714;SDS011;20043;50.998;4.754;2022-10-22T06:25:24;11.70;;;2.45;;
33714;SDS011;20043;50.998;4.754;2022-10-22T06:27:50;14.63;;;2.45;;
33714;SDS011;20043;50.998;4.754;2022-10-22T06:30:16;10.32;;;2.47;;
33714;SDS011;20043;50.998;4.754;2022-10-22T06:32:41;13.48;;;2.53;;
33714;SDS011;20043;50.998;4.754;2022-10-22T06:35:07;14.02;;;2.75;;
33714;SDS011;20043;50.998;4.754;2022-10-22T06:37:33;17.83;;;2.58;;
33714;SDS011;20043;50.998;4.754;2022-10-22T06:39:58;11.40;;;2.40;;
33714;SDS011;20043;50.998;4.754;2022-10-22T06:42:24;15.00;;;2.55;;
33714;SDS011;20043;50.998;4.754;2022-10-22T06:44:50;12.23;;;3.05;;
33714;SDS011;20043;50.998;4.754;2022-10-22T06:47:15;9.52;;;2.30;;
33714;SDS011;20043;50.998;4.754;2022-10-22T06:49:41;13.35;;;2.55;;
33714;SDS011;20043;50.998;4.754;2022-10-22T06:52:06;14.80;;;2.53;;
33714;SDS011;20043;50.998;4.754;2022-10-22T06:54:32;18.50;;;2.72;;
33714;SDS011;20043;50.998;4.754;2022-10-22T06:56:57;20.05;;;2.80;;
33714;SDS011;20043;50.998;4.754;2022-10-22T06:59:23;9.95;;;2.70;;
33714;SDS011;20043;50.998;4.754;2022-10-22T07:01:48;15.15;;;2.90;;
33714;SDS011;20043;50.998;4.754;2022-10-22T07:04:14;11.10;;;2.83;;
33714;SDS011;20043;50.998;4.754;2022-10-22T07:06:40;13.00;;;2.22;;
33714;SDS011;20043;50.998;4.754;2022-10-22T07:09:05;13.10;;;2.42;;
33714;SDS011;20043;50.998;4.754;2022-10-22T07:11:35;12.68;;;2.20;;
33714;SDS011;20043;50.998;4.754;2022-10-22T07:14:03;16.85;;;2.60;;
33714;SDS011;20043;50.998;4.754;2022-10-22T07:16:29;12.00;;;2.10;;
33714;SDS011;20043;50.998;4.754;2022-10-22T07:18:54;10.73;;;2.30;;
33714;SDS011;20043;50.998;4.754;2022-10-22T07:21:20;14.75;;;2.38;;
33714;SDS011;20043;50.998;4.754;2022-10-22T07:23:46;14.43;;;2.58;;
33714;SDS011;20043;50.998;4.754;2022-10-22T07:26:13;17.05;;;2.53;;
33714;SDS011;20043;50.998;4.754;2022-10-22T07:28:40;15.63;;;2.53;;
33714;SDS011;20043;50.998;4.754;2022-10-22T07:31:07;12.32;;;2.40;;
33714;SDS011;20043;50.998;4.754;2022-10-22T07:33:35;15.68;;;2.53;;
33714;SDS011;20043;50.998;4.754;2022-10-22T07:36:02;11.75;;;2.60;;
33714;SDS011;20043;50.998;4.754;2022-10-22T07:38:29;15.23;;;2.83;;
33714;SDS011;20043;50.998;4.754;2022-10-22T07:40:55;18.73;;;3.67;;
33714;SDS011;20043;50.998;4.754;2022-10-22T07:43:21;13.32;;;2.97;;
33714;SDS011;20043;50.998;4.754;2022-10-22T07:45:47;10.77;;;2.20;;
33714;SDS011;20043;50.998;4.754;2022-10-22T07:48:13;13.18;;;2.55;;
33714;SDS011;20043;50.998;4.754;2022-10-22T07:50:39;10.30;;;2.30;;
33714;SDS011;20043;50.998;4.754;2022-10-22T07:53:05;13.85;;;2.00;;
33714;SDS011;20043;50.998;4.754;2022-10-22T07:55:31;13.48;;;2.60;;
33714;SDS011;20043;50.998;4.754;2022-10-22T07:57:57;13.05;;;2.25;;
33714;SDS011;20043;50.998;4.754;2022-10-22T08:00:23;11.73;;;2.10;;
33714;SDS011;20043;50.998;4.754;2022-10-22T08:02:48;8.88;;;2.00;;
33714;SDS011;20043;50.998;4.754;2022-10-22T08:05:14;8.13;;;2.25;;
33714;SDS011;20043;50.998;4.754;2022-10-22T08:07:40;11.70;;;2.40;;
33714;SDS011;20043;50.998;4.754;2022-10-22T08:10:07;17.38;;;2.35;;
33714;SDS011;20043;50.998;4.754;2022-10-22T08:12:34;9.32;;;2.13;;
33714;SDS011;20043;50.998;4.754;2022-10-22T08:14:59;13.48;;;2.35;;
33714;SDS011;20043;50.998;4.754;2022-10-22T08:17:26;12.18;;;2.13;;
33714;SDS011;20043;50.998;4.754;2022-10-22T08:19:52;13.75;;;2.47;;
33714;SDS011;20043;50.998;4.754;2022-10-22T08:22:18;9.77;;;2.08;;
33714;SDS011;20043;50.998;4.754;2022-10-22T08:24:43;13.38;;;2.20;;
33714;SDS011;20043;50.998;4.754;2022-10-22T08:27:09;10.10;;;2.67;;
33714;SDS011;20043;50.998;4.754;2022-10-22T08:29:35;8.38;;;2.25;;
33714;SDS011;20043;50.998;4.754;2022-10-22T08:32:00;11.98;;;2.17;;
33714;SDS011;20043;50.998;4.754;2022-10-22T08:34:27;13.80;;;2.00;;
33714;SDS011;20043;50.998;4.754;2022-10-22T08:36:53;10.35;;;2.40;;
33714;SDS011;20043;50.998;4.754;2022-10-22T08:39:18;10.57;;;2.25;;
33714;SDS011;20043;50.998;4.754;2022-10-22T08:41:50;9.13;;;1.67;;
33714;SDS011;20043;50.998;4.754;2022-10-22T08:49:51;11.13;;;2.03;;
33714;SDS011;20043;50.998;4.754;2022-10-22T08:52:18;13.73;;;2.60;;
33714;SDS011;20043;50.998;4.754;2022-10-22T08:54:54;11.75;;;2.08;;
33714;SDS011;20043;50.998;4.754;2022-10-22T09:00:28;9.38;;;2.28;;
33714;SDS011;20043;50.998;4.754;2022-10-22T09:06:13;18.05;;;2.85;;
33714;SDS011;20043;50.998;4.754;2022-10-22T09:08:42;12.73;;;2.25;;
33714;SDS011;20043;50.998;4.754;2022-10-22T09:11:27;8.25;;;1.88;;
33714;SDS011;20043;50.998;4.754;2022-10-22T09:14:01;8.70;;;1.88;;
33714;SDS011;20043;50.998;4.754;2022-10-22T09:27:39;12.75;;;2.35;;
33714;SDS011;20043;50.998;4.754;2022-10-22T09:30:05;10.82;;;1.92;;
33714;SDS011;20043;50.998;4.754;2022-10-22T09:32:31;13.23;;;2.33;;
33714;SDS011;20043;50.998;4.754;2022-10-22T09:34:57;12.23;;;2.50;;
33714;SDS011;20043;50.998;4.754;2022-10-22T09:37:27;7.05;;;2.05;;
33714;SDS011;20043;50.998;4.754;2022-10-22T09:39:54;16.08;;;3.28;;
33714;SDS011;20043;50.998;4.754;2022-10-22T09:42:22;11.15;;;2.10;;
33714;SDS011;20043;50.998;4.754;2022-10-22T09:44:55;9.38;;;2.25;;
33714;SDS011;20043;50.998;4.754;2022-10-22T09:47:41;17.00;;;3.13;;
33714;SDS011;20043;50.998;4.754;2022-10-22T09:50:18;15.93;;;2.38;;
33714;SDS011;20043;50.998;4.754;2022-10-22T09:55:41;17.98;;;2.53;;
33714;SDS011;20043;50.998;4.754;2022-10-22T09:58:09;10.85;;;2.20;;
33714;SDS011;20043;50.998;4.754;2022-10-22T10:00:37;10.52;;;2.50;;
33714;SDS011;20043;50.998;4.754;2022-10-22T10:03:04;13.02;;;2.67;;
33714;SDS011;20043;50.998;4.754;2022-10-22T10:05:31;15.48;;;2.50;;
33714;SDS011;20043;50.998;4.754;2022-10-22T10:07:58;10.82;;;2.25;;
33714;SDS011;20043;50.998;4.754;2022-10-22T10:19:00;14.82;;;2.50;;
33714;SDS011;20043;50.998;4.754;2022-10-22T10:26:52;13.38;;;2.53;;
33714;SDS011;20043;50.998;4.754;2022-10-22T10:29:41;17.02;;;2.90;;
33714;SDS011;20043;50.998;4.754;2022-10-22T10:34:42;14.48;;;2.17;;
33714;SDS011;20043;50.998;4.754;2022-10-22T10:37:41;13.77;;;3.20;;
33714;SDS011;20043;50.998;4.754;2022-10-22T10:40:26;11.18;;;2.47;;
33714;SDS011;20043;50.998;4.754;2022-10-22T10:48:58;11.48;;;2.25;;
33714;SDS011;20043;50.998;4.754;2022-10-22T10:54:14;13.20;;;2.67;;
33714;SDS011;20043;50.998;4.754;2022-10-22T11:02:36;12.10;;;2.25;;
33714;SDS011;20043;50.998;4.754;2022-10-22T11:05:27;12.93;;;2.33;;
33714;SDS011;20043;50.998;4.754;2022-10-22T11:13:34;10.65;;;2.15;;
33714;SDS011;20043;50.998;4.754;2022-10-22T11:16:47;10.07;;;2.10;;
33714;SDS011;20043;50.998;4.754;2022-10-22T11:22:37;9.30;;;1.95;;
33714;SDS011;20043;50.998;4.754;2022-10-22T11:25:20;9.98;;;2.03;;
33714;SDS011;20043;50.998;4.754;2022-10-22T11:28:08;10.05;;;2.20;;
33714;SDS011;20043;50.998;4.754;2022-10-22T11:30:42;9.82;;;1.98;;
33714;SDS011;20043;50.998;4.754;2022-10-22T11:33:14;15.27;;;3.00;;
33714;SDS011;20043;50.998;4.754;2022-10-22T11:35:43;15.30;;;2.22;;
33714;SDS011;20043;50.998;4.754;2022-10-22T11:38:19;10.18;;;2.55;;
33714;SDS011;20043;50.998;4.754;2022-10-22T11:40:50;12.40;;;2.45;;
33714;SDS011;20043;50.998;4.754;2022-10-22T11:46:33;11.23;;;2.30;;
33714;SDS011;20043;50.998;4.754;2022-10-22T11:51:38;7.68;;;1.63;;
33714;SDS011;20043;50.998;4.754;2022-10-22T11:59:39;10.80;;;2.42;;
33714;SDS011;20043;50.998;4.754;2022-10-22T12:02:29;11.68;;;2.08;;
33714;SDS011;20043;50.998;4.754;2022-10-22T12:13:31;11.65;;;2.40;;
33714;SDS011;20043;50.998;4.754;2022-10-22T12:16:14;8.20;;;2.37;;
33714;SDS011;20043;50.998;4.754;2022-10-22T12:18:40;11.02;;;2.33;;
33714;SDS011;20043;50.998;4.754;2022-10-22T12:21:11;7.72;;;2.10;;
33714;SDS011;20043;50.998;4.754;2022-10-22T12:23:38;15.07;;;2.35;;
33714;SDS011;20043;50.998;4.754;2022-10-22T12:26:04;14.57;;;2.70;;
33714;SDS011;20043;50.998;4.754;2022-10-22T12:28:36;10.90;;;2.10;;
33714;SDS011;20043;50.998;4.754;2022-10-22T12:31:05;8.32;;;1.63;;
33714;SDS011;20043;50.998;4.754;2022-10-22T12:33:38;10.80;;;2.38;;
33714;SDS011;20043;50.998;4.754;2022-10-22T12:36:04;8.80;;;1.80;;
33714;SDS011;20043;50.998;4.754;2022-10-22T12:38:30;9.75;;;2.17;;
33714;SDS011;20043;50.998;4.754;2022-10-22T12:40:56;10.63;;;1.75;;
33714;SDS011;20043;50.998;4.754;2022-10-22T12:43:27;10.52;;;2.33;;
33714;SDS011;20043;50.998;4.754;2022-10-22T12:45:54;11.13;;;1.88;;
33714;SDS011;20043;50.998;4.754;2022-10-22T12:48:31;9.02;;;1.73;;
33714;SDS011;20043;50.998;4.754;2022-10-22T12:51:01;11.18;;;1.90;;
33714;SDS011;20043;50.998;4.754;2022-10-22T12:53:32;9.02;;;1.90;;
33714;SDS011;20043;50.998;4.754;2022-10-22T12:56:09;10.15;;;1.90;;
33714;SDS011;20043;50.998;4.754;2022-10-22T12:58:38;9.65;;;2.15;;
33714;SDS011;20043;50.998;4.754;2022-10-22T13:01:28;10.43;;;1.80;;
33714;SDS011;20043;50.998;4.754;2022-10-22T13:07:36;13.38;;;2.80;;
33714;SDS011;20043;50.998;4.754;2022-10-22T13:12:26;8.23;;;2.05;;
33714;SDS011;20043;50.998;4.754;2022-10-22T13:15:16;13.73;;;2.00;;
33714;SDS011;20043;50.998;4.754;2022-10-22T13:17:43;15.27;;;2.33;;
33714;SDS011;20043;50.998;4.754;2022-10-22T13:20:27;5.57;;;1.65;;
33714;SDS011;20043;50.998;4.754;2022-10-22T13:22:59;8.05;;;1.77;;
33714;SDS011;20043;50.998;4.754;2022-10-22T13:25:30;10.27;;;1.88;;
33714;SDS011;20043;50.998;4.754;2022-10-22T13:27:58;8.50;;;1.70;;
33714;SDS011;20043;50.998;4.754;2022-10-22T13:30:33;7.85;;;1.92;;
33714;SDS011;20043;50.998;4.754;2022-10-22T13:33:05;6.32;;;1.73;;
33714;SDS011;20043;50.998;4.754;2022-10-22T13:35:45;10.50;;;2.15;;
33714;SDS011;20043;50.998;4.754;2022-10-22T13:38:14;29.17;;;2.70;;
33714;SDS011;20043;50.998;4.754;2022-10-22T13:40:43;14.75;;;2.50;;
33714;SDS011;20043;50.998;4.754;2022-10-22T13:43:09;11.10;;;1.50;;
33714;SDS011;20043;50.998;4.754;2022-10-22T13:45:34;7.80;;;1.50;;
33714;SDS011;20043;50.998;4.754;2022-10-22T13:48:00;7.03;;;1.58;;
33714;SDS011;20043;50.998;4.754;2022-10-22T13:50:26;8.75;;;1.83;;
33714;SDS011;20043;50.998;4.754;2022-10-22T13:52:52;6.07;;;1.65;;
33714;SDS011;20043;50.998;4.754;2022-10-22T13:55:21;7.88;;;1.85;;
33714;SDS011;20043;50.998;4.754;2022-10-22T13:58:08;9.73;;;1.90;;
33714;SDS011;20043;50.998;4.754;2022-10-22T14:00:40;8.02;;;1.80;;
33714;SDS011;20043;50.998;4.754;2022-10-22T14:03:10;19.95;;;2.47;;
33714;SDS011;20043;50.998;4.754;2022-10-22T14:05:38;7.43;;;1.55;;
33714;SDS011;20043;50.998;4.754;2022-10-22T14:08:05;7.05;;;1.70;;
33714;SDS011;20043;50.998;4.754;2022-10-22T14:10:38;7.10;;;1.73;;
33714;SDS011;20043;50.998;4.754;2022-10-22T14:13:08;7.63;;;1.90;;
33714;SDS011;20043;50.998;4.754;2022-10-22T14:15:35;10.40;;;1.90;;
33714;SDS011;20043;50.998;4.754;2022-10-22T14:18:01;7.35;;;2.00;;
33714;SDS011;20043;50.998;4.754;2022-10-22T14:20:30;7.22;;;1.65;;
33714;SDS011;20043;50.998;4.754;2022-10-22T14:23:01;11.93;;;1.90;;
33714;SDS011;20043;50.998;4.754;2022-10-22T14:25:35;10.40;;;1.90;;
33714;SDS011;20043;50.998;4.754;2022-10-22T14:28:01;14.50;;;2.60;;
33714;SDS011;20043;50.998;4.754;2022-10-22T14:30:26;7.15;;;1.77;;
33714;SDS011;20043;50.998;4.754;2022-10-22T14:32:54;10.70;;;1.95;;
33714;SDS011;20043;50.998;4.754;2022-10-22T14:35:22;6.32;;;1.45;;
33714;SDS011;20043;50.998;4.754;2022-10-22T14:37:48;8.82;;;1.70;;
33714;SDS011;20043;50.998;4.754;2022-10-22T14:40:15;12.98;;;2.60;;
33714;SDS011;20043;50.998;4.754;2022-10-22T14:42:44;5.75;;;1.70;;
33714;SDS011;20043;50.998;4.754;2022-10-22T14:45:13;7.68;;;1.75;;
33714;SDS011;20043;50.998;4.754;2022-10-22T14:47:42;11.75;;;2.03;;
33714;SDS011;20043;50.998;4.754;2022-10-22T14:50:08;7.03;;;1.48;;
33714;SDS011;20043;50.998;4.754;2022-10-22T14:52:34;6.35;;;1.52;;
33714;SDS011;20043;50.998;4.754;2022-10-22T14:55:00;9.60;;;2.00;;
33714;SDS011;20043;50.998;4.754;2022-10-22T14:57:25;9.07;;;2.10;;
33714;SDS011;20043;50.998;4.754;2022-10-22T14:59:51;9.60;;;1.92;;
33714;SDS011;20043;50.998;4.754;2022-10-22T15:02:19;5.45;;;1.40;;
33714;SDS011;20043;50.998;4.754;2022-10-22T15:04:45;12.05;;;1.98;;
33714;SDS011;20043;50.998;4.754;2022-10-22T15:07:12;9.52;;;1.75;;
33714;SDS011;20043;50.998;4.754;2022-10-22T15:09:38;9.77;;;1.90;;
33714;SDS011;20043;50.998;4.754;2022-10-22T15:12:03;10.88;;;1.80;;
33714;SDS011;20043;50.998;4.754;2022-10-22T15:14:29;8.38;;;1.80;;
33714;SDS011;20043;50.998;4.754;2022-10-22T15:16:55;10.73;;;2.30;;
33714;SDS011;20043;50.998;4.754;2022-10-22T15:19:21;10.77;;;1.85;;
33714;SDS011;20043;50.998;4.754;2022-10-22T15:21:46;9.40;;;1.98;;
33714;SDS011;20043;50.998;4.754;2022-10-22T15:24:12;11.93;;;2.50;;
33714;SDS011;20043;50.998;4.754;2022-10-22T15:26:38;11.13;;;2.40;;
33714;SDS011;20043;50.998;4.754;2022-10-22T15:29:03;12.50;;;3.20;;
33714;SDS011;20043;50.998;4.754;2022-10-22T15:31:48;13.40;;;2.30;;
33714;SDS011;20043;50.998;4.754;2022-10-22T15:34:23;9.30;;;2.63;;
33714;SDS011;20043;50.998;4.754;2022-10-22T15:37:00;8.02;;;2.42;;
33714;SDS011;20043;50.998;4.754;2022-10-22T15:39:27;13.32;;;2.90;;
33714;SDS011;20043;50.998;4.754;2022-10-22T15:41:53;9.25;;;2.42;;
33714;SDS011;20043;50.998;4.754;2022-10-22T15:44:21;9.25;;;1.95;;
33714;SDS011;20043;50.998;4.754;2022-10-22T15:46:48;7.43;;;2.03;;
33714;SDS011;20043;50.998;4.754;2022-10-22T15:49:14;9.00;;;1.90;;
33714;SDS011;20043;50.998;4.754;2022-10-22T15:51:41;6.45;;;1.65;;
33714;SDS011;20043;50.998;4.754;2022-10-22T15:54:09;9.38;;;1.65;;
33714;SDS011;20043;50.998;4.754;2022-10-22T15:56:39;10.18;;;2.22;;
33714;SDS011;20043;50.998;4.754;2022-10-22T15:59:05;9.88;;;1.70;;
33714;SDS011;20043;50.998;4.754;2022-10-22T16:01:32;10.27;;;2.10;;
33714;SDS011;20043;50.998;4.754;2022-10-22T16:03:58;10.75;;;1.92;;
33714;SDS011;20043;50.998;4.754;2022-10-22T16:06:26;7.78;;;1.77;;
33714;SDS011;20043;50.998;4.754;2022-10-22T16:08:55;8.73;;;2.00;;
33714;SDS011;20043;50.998;4.754;2022-10-22T16:11:21;12.75;;;2.47;;
33714;SDS011;20043;50.998;4.754;2022-10-22T16:13:47;5.95;;;2.20;;
33714;SDS011;20043;50.998;4.754;2022-10-22T16:16:12;11.45;;;2.85;;
33714;SDS011;20043;50.998;4.754;2022-10-22T16:18:38;15.38;;;3.20;;
33714;SDS011;20043;50.998;4.754;2022-10-22T16:21:03;9.00;;;2.53;;
33714;SDS011;20043;50.998;4.754;2022-10-22T16:23:29;11.38;;;2.42;;
33714;SDS011;20043;50.998;4.754;2022-10-22T16:25:55;10.88;;;2.55;;
33714;SDS011;20043;50.998;4.754;2022-10-22T16:28:20;9.25;;;2.08;;
33714;SDS011;20043;50.998;4.754;2022-10-22T16:30:46;11.82;;;2.72;;
33714;SDS011;20043;50.998;4.754;2022-10-22T16:33:12;7.30;;;2.30;;
33714;SDS011;20043;50.998;4.754;2022-10-22T16:35:38;8.35;;;1.90;;
33714;SDS011;20043;50.998;4.754;2022-10-22T16:38:05;10.20;;;2.45;;
33714;SDS011;20043;50.998;4.754;2022-10-22T16:40:31;7.90;;;2.00;;
33714;SDS011;20043;50.998;4.754;2022-10-22T16:42:57;9.18;;;1.95;;
33714;SDS011;20043;50.998;4.754;2022-10-22T16:45:22;18.15;;;2.58;;